createdAt,value
2022-09-28T00:01:17.979Z,1.60
2022-09-28T00:03:46.917Z,1.60
2022-09-28T00:06:17.068Z,1.55
2022-09-28T00:08:45.543Z,1.80
2022-09-28T00:11:15.908Z,1.38
2022-09-28T00:13:44.571Z,1.52
2022-09-28T00:16:16.799Z,1.55
2022-09-28T00:18:45.617Z,1.50
2022-09-28T00:21:15.740Z,1.58
2022-09-28T00:23:58.848Z,1.60
2022-09-28T00:26:27.274Z,1.63
2022-09-28T00:28:56.214Z,1.30
2022-09-28T00:31:26.406Z,1.13
2022-09-28T00:33:56.801Z,1.48
2022-09-28T00:36:26.998Z,1.83
2022-09-28T00:38:56.362Z,1.60
2022-09-28T00:41:25.446Z,1.67
2022-09-28T00:43:53.640Z,1.80
2022-09-28T00:46:29.439Z,2.03
2022-09-28T00:48:59.901Z,1.80
2022-09-28T00:51:28.644Z,2.00
2022-09-28T00:53:57.646Z,1.90
2022-09-28T00:56:29.826Z,1.98
2022-09-28T00:58:59.644Z,1.70
2022-09-28T01:01:29.577Z,1.65
2022-09-28T01:03:59.552Z,2.08
2022-09-28T01:06:31.337Z,2.22
2022-09-28T01:09:03.461Z,1.58
2022-09-28T01:11:33.651Z,1.50
2022-09-28T01:14:02.673Z,1.70
2022-09-28T01:16:40.784Z,1.90
2022-09-28T01:19:25.478Z,1.55
2022-09-28T01:22:00.682Z,1.50
2022-09-28T01:24:41.460Z,1.77
2022-09-28T01:27:16.605Z,1.50
2022-09-28T01:29:55.542Z,1.70
2022-09-28T01:32:33.197Z,1.40
2022-09-28T01:35:08.843Z,1.67
2022-09-28T01:37:43.446Z,1.20
2022-09-28T01:40:12.997Z,1.67
2022-09-28T01:42:45.138Z,1.35
2022-09-28T01:45:17.844Z,1.50
2022-09-28T01:47:47.771Z,1.77
2022-09-28T01:50:19.351Z,1.67
2022-09-28T01:52:52.282Z,1.88
2022-09-28T01:55:27.146Z,2.13
2022-09-28T01:58:00.930Z,1.50
2022-09-28T02:00:29.600Z,1.90
2022-09-28T02:03:03.147Z,1.90
2022-09-28T02:05:34.176Z,1.60
2022-09-28T02:08:07.773Z,1.35
2022-09-28T02:10:41.874Z,1.13
2022-09-28T02:13:16.588Z,1.48
2022-09-28T02:15:49.811Z,1.40
2022-09-28T02:18:18.247Z,1.50
2022-09-28T02:20:57.825Z,1.50
2022-09-28T02:23:29.864Z,1.95
2022-09-28T02:26:03.041Z,1.80
2022-09-28T02:28:32.476Z,1.58
2022-09-28T02:31:00.502Z,1.90
2022-09-28T02:33:33.156Z,1.42
2022-09-28T02:36:03.445Z,1.30
2022-09-28T02:38:32.294Z,1.35
2022-09-28T02:41:05.881Z,1.30
2022-09-28T02:43:51.137Z,1.27
2022-09-28T02:46:30.479Z,1.20
2022-09-28T02:49:21.706Z,1.17
2022-09-28T02:52:05.316Z,1.10
2022-09-28T02:54:53.446Z,1.25
2022-09-28T02:57:33.260Z,1.02
2022-09-28T03:00:08.529Z,1.30
2022-09-28T03:02:43.170Z,0.80
2022-09-28T03:05:16.112Z,1.40
2022-09-28T03:07:53.721Z,1.20
2022-09-28T03:10:28.371Z,1.00
2022-09-28T03:12:57.364Z,1.10
2022-09-28T03:15:28.741Z,1.23
2022-09-28T03:17:57.556Z,1.10
2022-09-28T03:20:26.338Z,1.58
2022-09-28T03:23:19.774Z,1.13
2022-09-28T03:25:42.577Z,1.30
2022-09-28T03:28:10.688Z,1.20
2022-09-28T03:30:40.076Z,1.40
2022-09-28T03:33:08.047Z,1.10
2022-09-28T03:35:36.123Z,1.83
2022-09-28T03:38:04.115Z,1.30
2022-09-28T03:40:32.255Z,1.10
2022-09-28T03:43:01.443Z,2.17
2022-09-28T03:45:29.493Z,1.33
2022-09-28T03:48:00.204Z,0.90
2022-09-28T03:50:28.347Z,1.35
2022-09-28T03:52:56.331Z,0.93
2022-09-28T03:55:24.308Z,1.08
2022-09-28T03:57:55.932Z,1.40
2022-09-28T04:00:24.438Z,1.63
2022-09-28T04:02:52.367Z,1.63
2022-09-28T04:05:21.729Z,2.25
2022-09-28T04:07:49.702Z,1.48
2022-09-28T04:10:17.802Z,1.63
2022-09-28T04:12:45.963Z,1.45
2022-09-28T04:15:14.831Z,1.80
2022-09-28T04:17:43.451Z,2.23
2022-09-28T04:20:11.462Z,1.50
2022-09-28T04:22:40.843Z,1.10
2022-09-28T04:25:09.483Z,1.10
2022-09-28T04:27:54.989Z,1.20
2022-09-28T04:30:23.142Z,1.10
2022-09-28T04:32:51.251Z,0.90
2022-09-28T04:35:19.366Z,1.33
2022-09-28T04:37:48.763Z,3.60
2022-09-28T04:40:16.916Z,1.20
2022-09-28T04:42:44.970Z,2.73
2022-09-28T04:45:13.046Z,2.30
2022-09-28T04:47:41.024Z,2.03
2022-09-28T04:50:09.953Z,6.43
2022-09-28T04:52:38.332Z,1.20
2022-09-28T04:55:08.612Z,0.87
2022-09-28T04:57:36.739Z,1.10
2022-09-28T05:00:05.393Z,1.37
2022-09-28T05:02:33.761Z,1.20
2022-09-28T05:05:01.862Z,0.97
2022-09-28T05:07:31.208Z,1.10
2022-09-28T05:10:00.573Z,1.13
2022-09-28T05:12:29.951Z,1.40
2022-09-28T05:14:58.090Z,4.80
2022-09-28T05:17:26.063Z,1.67
2022-09-28T05:19:54.099Z,1.60
2022-09-28T05:22:22.108Z,1.60
2022-09-28T05:24:50.285Z,1.90
2022-09-28T05:27:18.391Z,7.80
2022-09-28T05:29:47.914Z,2.40
2022-09-28T05:32:16.800Z,3.53
2022-09-28T05:34:44.855Z,1.90
2022-09-28T05:37:12.834Z,1.67
2022-09-28T05:39:40.788Z,12.07
2022-09-28T05:42:08.861Z,2.77
2022-09-28T05:44:38.392Z,2.47
2022-09-28T05:47:07.838Z,1.80
2022-09-28T05:49:35.848Z,2.00
2022-09-28T05:52:04.028Z,2.50
2022-09-28T05:54:32.158Z,2.00
2022-09-28T05:57:00.231Z,2.97
2022-09-28T05:59:30.220Z,7.10
2022-09-28T06:01:58.344Z,2.65
2022-09-28T06:04:27.913Z,2.77
2022-09-28T06:06:56.031Z,2.70
2022-09-28T06:09:26.072Z,4.85
2022-09-28T06:11:54.447Z,2.40
2022-09-28T06:14:22.658Z,2.55
2022-09-28T06:16:50.943Z,2.72
2022-09-28T06:19:19.550Z,3.15
2022-09-28T06:21:50.020Z,3.80
2022-09-28T06:24:18.229Z,4.18
2022-09-28T06:26:46.390Z,3.10
2022-09-28T06:29:19.791Z,3.20
2022-09-28T06:31:48.319Z,3.42
2022-09-28T06:34:17.229Z,3.15
2022-09-28T06:36:45.471Z,3.35
2022-09-28T06:39:14.847Z,3.55
2022-09-28T06:41:42.863Z,3.03
2022-09-28T06:44:11.107Z,3.97
2022-09-28T06:46:40.176Z,3.33
2022-09-28T06:49:09.417Z,2.83
2022-09-28T06:51:37.715Z,3.05
2022-09-28T06:54:06.004Z,2.83
2022-09-28T06:56:35.398Z,2.60
2022-09-28T06:59:03.457Z,2.67
2022-09-28T07:01:31.633Z,2.85
2022-09-28T07:04:01.821Z,3.15
2022-09-28T07:06:31.021Z,2.58
2022-09-28T07:09:14.926Z,3.65
2022-09-28T07:11:52.705Z,3.00
2022-09-28T07:14:43.409Z,2.72
2022-09-28T07:17:14.217Z,2.88
2022-09-28T07:19:42.634Z,2.90
2022-09-28T07:22:18.569Z,2.92
2022-09-28T07:24:48.359Z,3.13
2022-09-28T07:27:18.018Z,3.00
2022-09-28T07:29:46.052Z,2.47
2022-09-28T07:32:14.073Z,3.00
2022-09-28T07:34:43.708Z,3.35
2022-09-28T07:37:12.469Z,3.00
2022-09-28T07:39:55.002Z,2.88
2022-09-28T07:42:25.040Z,2.95
2022-09-28T07:44:53.129Z,3.10
2022-09-28T07:47:30.826Z,3.03
2022-09-28T07:50:02.047Z,2.75
2022-09-28T07:52:30.041Z,3.53
2022-09-28T07:54:58.170Z,2.63
2022-09-28T07:57:27.576Z,2.55
2022-09-28T07:59:55.836Z,3.03
2022-09-28T08:02:24.381Z,3.20
2022-09-28T08:04:53.009Z,3.00
2022-09-28T08:07:23.873Z,2.95
2022-09-28T08:09:52.620Z,3.28
2022-09-28T08:12:21.155Z,3.15
2022-09-28T08:14:52.206Z,2.70
2022-09-28T08:17:20.249Z,2.50
2022-09-28T08:20:05.781Z,2.42
2022-09-28T08:22:34.237Z,2.65
2022-09-28T08:25:02.374Z,2.67
2022-09-28T08:27:30.475Z,2.90
2022-09-28T08:29:59.853Z,2.72
2022-09-28T08:32:28.235Z,2.50
2022-09-28T08:34:57.013Z,2.90
2022-09-28T08:37:25.214Z,2.60
2022-09-28T08:39:53.465Z,2.78
2022-09-28T08:42:34.639Z,2.80
2022-09-28T08:45:10.356Z,2.75
2022-09-28T08:48:07.407Z,2.80
2022-09-28T08:50:39.245Z,2.65
2022-09-28T08:53:19.134Z,2.50
2022-09-28T08:55:47.855Z,2.53
2022-09-28T08:58:21.372Z,2.72
2022-09-28T09:00:53.152Z,2.75
2022-09-28T09:03:23.729Z,2.78
2022-09-28T09:06:04.932Z,2.70
2022-09-28T09:08:45.948Z,2.88
2022-09-28T09:11:22.919Z,2.72
2022-09-28T09:14:29.043Z,2.55
2022-09-28T09:17:06.123Z,2.20
2022-09-28T09:19:38.469Z,2.60
2022-09-28T09:22:16.808Z,2.60
2022-09-28T09:24:50.837Z,2.25
2022-09-28T09:27:42.795Z,2.28
2022-09-28T09:30:13.171Z,1.98
2022-09-28T09:33:11.341Z,2.53
2022-09-28T09:36:05.743Z,2.13
2022-09-28T09:38:45.507Z,2.22
2022-09-28T09:41:25.972Z,2.58
2022-09-28T09:44:12.084Z,1.73
2022-09-28T09:46:45.356Z,1.73
2022-09-28T09:49:20.720Z,1.90
2022-09-28T09:51:56.015Z,2.22
2022-09-28T09:54:27.861Z,2.03
2022-09-28T09:57:00.654Z,2.20
2022-09-28T09:59:33.775Z,2.13
2022-09-28T10:02:03.994Z,1.80
2022-09-28T10:04:38.130Z,1.70
2022-09-28T10:07:07.664Z,1.58
2022-09-28T10:09:39.994Z,1.60
2022-09-28T10:12:11.884Z,1.70
2022-09-28T10:14:39.946Z,1.70
2022-09-28T10:17:08.575Z,1.42
2022-09-28T10:19:38.274Z,1.83
2022-09-28T10:22:07.150Z,1.70
2022-09-28T10:24:41.329Z,1.38
2022-09-28T10:27:14.435Z,1.33
2022-09-28T10:29:56.538Z,1.70
2022-09-28T10:32:26.468Z,1.77
2022-09-28T10:35:14.911Z,1.60
2022-09-28T10:37:54.245Z,1.80
2022-09-28T10:40:43.521Z,2.08
2022-09-28T10:43:21.663Z,1.67
2022-09-28T10:46:00.333Z,1.40
2022-09-28T10:48:31.165Z,1.70
2022-09-28T10:51:03.736Z,1.92
2022-09-28T10:53:31.843Z,1.98
2022-09-28T10:56:02.799Z,2.03
2022-09-28T10:58:37.281Z,1.70
2022-09-28T11:01:10.510Z,1.80
2022-09-28T11:03:49.805Z,1.88
2022-09-28T11:06:26.129Z,1.80
2022-09-28T11:08:55.901Z,1.50
2022-09-28T11:11:24.987Z,1.95
2022-09-28T11:13:55.082Z,2.13
2022-09-28T11:16:26.578Z,2.05
2022-09-28T11:18:54.930Z,2.10
2022-09-28T11:21:31.118Z,1.92
2022-09-28T11:24:05.832Z,2.60
2022-09-28T11:26:41.400Z,2.03
2022-09-28T11:29:24.547Z,2.20
2022-09-28T11:31:53.208Z,1.70
2022-09-28T11:34:36.512Z,1.88
2022-09-28T11:37:47.659Z,1.42
2022-09-28T11:40:28.805Z,1.70
2022-09-28T11:43:07.828Z,2.10
2022-09-28T11:45:49.557Z,1.48
2022-09-28T11:48:23.050Z,1.63
2022-09-28T11:50:54.228Z,1.58
2022-09-28T11:53:30.893Z,1.50
2022-09-28T11:56:08.873Z,1.40
2022-09-28T11:58:44.047Z,1.20
2022-09-28T12:01:23.073Z,1.63
2022-09-28T12:03:54.874Z,1.10
2022-09-28T12:06:30.494Z,0.80
2022-09-28T12:09:06.942Z,0.90
2022-09-28T12:11:40.009Z,1.10
2022-09-28T12:14:16.665Z,1.13
2022-09-28T12:17:07.286Z,1.27
2022-09-28T12:19:42.249Z,1.20
2022-09-28T12:22:24.806Z,1.10
2022-09-28T12:24:57.439Z,1.10
2022-09-28T12:27:32.396Z,1.13
2022-09-28T12:30:05.734Z,1.30
2022-09-28T12:32:39.243Z,1.42
2022-09-28T12:35:13.638Z,0.95
2022-09-28T12:38:00.982Z,0.90
2022-09-28T12:40:39.072Z,0.68
2022-09-28T12:43:33.339Z,1.30
2022-09-28T12:46:23.189Z,0.95
2022-09-28T12:49:56.368Z,1.30
2022-09-28T12:51:56.095Z,0.90
2022-09-28T12:54:59.018Z,0.90
2022-09-28T12:57:41.540Z,1.17
2022-09-28T13:00:14.432Z,0.95
2022-09-28T13:03:07.055Z,1.23
2022-09-28T13:06:05.491Z,0.90
2022-09-28T13:08:42.317Z,1.00
2022-09-28T13:11:21.970Z,0.95
2022-09-28T13:14:01.861Z,1.15
2022-09-28T13:16:36.915Z,1.33
2022-09-28T13:19:17.635Z,1.55
2022-09-28T13:21:51.939Z,1.02
2022-09-28T13:24:34.067Z,1.33
2022-09-28T13:27:08.452Z,1.17
2022-09-28T13:32:15.090Z,1.10
2022-09-28T13:34:43.265Z,1.08
2022-09-28T13:37:26.779Z,0.98
2022-09-28T13:39:56.608Z,1.05
2022-09-28T13:42:53.539Z,1.38
2022-09-28T13:45:51.595Z,0.95
2022-09-28T13:48:22.830Z,1.30
2022-09-28T13:51:27.246Z,0.85
2022-09-28T13:54:17.799Z,1.10
2022-09-28T13:56:55.131Z,1.08
2022-09-28T13:59:27.258Z,1.67
2022-09-28T14:02:06.847Z,1.42
2022-09-28T14:04:57.375Z,1.00
2022-09-28T14:10:20.869Z,1.10
2022-09-28T14:12:51.321Z,1.00
2022-09-28T14:15:41.583Z,1.08
2022-09-28T14:18:23.445Z,0.90
2022-09-28T14:21:18.889Z,0.70
2022-09-28T14:24:07.931Z,0.88
2022-09-28T14:27:01.039Z,1.20
2022-09-28T14:29:31.489Z,1.10
2022-09-28T14:32:05.230Z,1.30
2022-09-28T14:34:37.954Z,1.00
2022-09-28T14:37:39.090Z,1.25
2022-09-28T14:40:34.964Z,1.10
2022-09-28T14:43:28.298Z,1.83
2022-09-28T14:46:45.537Z,1.05
2022-09-28T14:49:52.786Z,1.20
2022-09-28T14:52:45.842Z,1.00
2022-09-28T14:55:20.206Z,0.90
2022-09-28T14:57:56.557Z,0.90
2022-09-28T15:00:29.253Z,1.00
2022-09-28T15:03:01.763Z,1.00
2022-09-28T15:05:33.753Z,0.90
2022-09-28T15:08:03.384Z,1.13
2022-09-28T15:10:33.613Z,1.45
2022-09-28T15:13:03.887Z,1.30
2022-09-28T15:15:35.496Z,0.98
2022-09-28T15:18:30.722Z,1.00
2022-09-28T15:20:59.038Z,0.93
2022-09-28T15:23:35.886Z,1.05
2022-09-28T15:26:07.125Z,1.10
2022-09-28T15:28:36.697Z,1.23
2022-09-28T15:31:06.213Z,1.10
2022-09-28T15:33:53.432Z,1.17
2022-09-28T15:36:24.350Z,0.95
2022-09-28T15:38:58.372Z,0.80
2022-09-28T15:41:27.331Z,0.90
2022-09-28T15:44:33.135Z,0.85
2022-09-28T15:47:13.808Z,1.10
2022-09-28T15:49:45.940Z,1.10
2022-09-28T15:52:30.839Z,0.98
2022-09-28T15:55:02.515Z,0.90
2022-09-28T15:57:35.411Z,1.00
2022-09-28T16:00:05.798Z,1.02
2022-09-28T16:02:33.921Z,0.90
2022-09-28T16:05:04.632Z,0.90
2022-09-28T16:07:38.410Z,1.05
2022-09-28T16:10:31.263Z,1.45
2022-09-28T16:13:12.108Z,1.00
2022-09-28T16:15:40.448Z,1.45
2022-09-28T16:18:19.023Z,1.10
2022-09-28T16:20:50.096Z,1.50
2022-09-28T16:23:22.593Z,1.13
2022-09-28T16:25:55.092Z,1.05
2022-09-28T16:28:33.654Z,1.05
2022-09-28T16:31:06.162Z,1.02
2022-09-28T16:33:46.650Z,1.77
2022-09-28T16:36:17.091Z,1.85
2022-09-28T16:38:45.441Z,5.18
2022-09-28T16:41:16.336Z,2.00
2022-09-28T16:43:44.523Z,1.60
2022-09-28T16:46:15.875Z,1.38
2022-09-28T16:48:48.703Z,1.65
2022-09-28T16:51:17.565Z,1.90
2022-09-28T16:54:03.755Z,1.88
2022-09-28T16:56:33.785Z,0.95
2022-09-28T16:59:02.185Z,1.27
2022-09-28T17:01:31.297Z,1.02
2022-09-28T17:03:59.479Z,0.90
2022-09-28T17:06:28.536Z,0.98
2022-09-28T17:08:59.337Z,0.85
2022-09-28T17:11:27.699Z,0.82
2022-09-28T17:13:58.933Z,1.00
2022-09-28T17:19:21.211Z,1.20
2022-09-28T17:21:49.646Z,1.00
2022-09-28T17:24:17.754Z,0.90
2022-09-28T17:26:47.053Z,0.90
2022-09-28T17:29:16.866Z,0.85
2022-09-28T17:31:46.028Z,1.23
2022-09-28T17:34:15.213Z,1.00
2022-09-28T17:36:44.369Z,0.98
2022-09-28T17:39:14.341Z,0.82
2022-09-28T17:41:42.407Z,0.90
2022-09-28T17:44:10.547Z,1.20
2022-09-28T17:46:45.871Z,1.60
2022-09-28T17:49:14.933Z,1.20
2022-09-28T17:51:43.152Z,1.08
2022-09-28T17:54:12.892Z,1.30
2022-09-28T17:56:42.402Z,1.02
2022-09-28T17:59:14.386Z,1.10
2022-09-28T18:01:43.774Z,1.02
2022-09-28T18:04:33.232Z,1.10
2022-09-28T18:07:01.584Z,1.20
2022-09-28T18:09:29.971Z,1.42
2022-09-28T18:12:00.964Z,1.65
2022-09-28T18:14:30.102Z,1.75
2022-09-28T18:16:59.597Z,1.92
2022-09-28T18:19:31.971Z,1.52
2022-09-28T18:22:01.379Z,1.30
2022-09-28T18:24:29.803Z,2.03
2022-09-28T18:26:57.837Z,2.83
2022-09-28T18:29:28.916Z,3.38
2022-09-28T18:32:00.518Z,3.03
2022-09-28T18:34:28.611Z,2.90
2022-09-28T18:36:56.672Z,2.22
2022-09-28T18:39:26.494Z,2.53
2022-09-28T18:41:54.553Z,2.00
2022-09-28T18:44:22.762Z,2.25
2022-09-28T18:46:51.497Z,1.98
2022-09-28T18:49:21.193Z,2.35
2022-09-28T18:51:49.321Z,1.95
2022-09-28T18:54:18.041Z,2.17
2022-09-28T18:56:46.145Z,2.72
2022-09-28T18:59:14.903Z,2.90
2022-09-28T19:01:43.248Z,3.17
2022-09-28T19:04:13.605Z,2.60
2022-09-28T19:06:44.611Z,3.03
2022-09-28T19:09:13.284Z,2.90
2022-09-28T19:11:41.358Z,2.42
2022-09-28T19:14:11.557Z,2.60
2022-09-28T19:16:39.511Z,2.42
2022-09-28T19:19:08.834Z,3.00
2022-09-28T19:21:36.893Z,2.97
2022-09-28T19:24:06.771Z,4.40
2022-09-28T19:26:35.089Z,2.55
2022-09-28T19:29:03.369Z,3.70
2022-09-28T19:31:32.632Z,4.35
2022-09-28T19:34:00.729Z,4.47
2022-09-28T19:36:29.463Z,4.45
2022-09-28T19:39:03.018Z,3.15
2022-09-28T19:41:45.132Z,3.30
2022-09-28T19:44:24.341Z,3.58
2022-09-28T19:46:54.541Z,3.83
2022-09-28T19:49:23.829Z,3.05
2022-09-28T19:52:13.805Z,3.53
2022-09-28T19:54:44.842Z,3.90
2022-09-28T19:57:15.979Z,3.60
2022-09-28T19:59:47.422Z,4.18
2022-09-28T20:02:17.613Z,3.58
2022-09-28T20:04:45.659Z,3.60
2022-09-28T20:07:13.870Z,3.57
2022-09-28T20:09:42.165Z,3.13
2022-09-28T20:12:10.344Z,3.55
2022-09-28T20:14:40.613Z,3.60
2022-09-28T20:17:09.080Z,3.75
2022-09-28T20:19:37.250Z,3.60
2022-09-28T20:22:05.670Z,3.28
2022-09-28T20:24:33.833Z,3.50
2022-09-28T20:27:02.452Z,3.53
2022-09-28T20:29:32.046Z,3.40
2022-09-28T20:32:01.798Z,4.50
2022-09-28T20:34:29.908Z,3.85
2022-09-28T20:36:57.972Z,3.87
2022-09-28T20:39:26.015Z,4.05
2022-09-28T20:41:55.002Z,3.45
2022-09-28T20:44:23.047Z,3.70
2022-09-28T20:46:51.511Z,4.18
2022-09-28T20:49:20.900Z,3.58
2022-09-28T20:51:48.932Z,3.50
2022-09-28T20:54:17.172Z,3.20
2022-09-28T20:56:47.992Z,3.35
2022-09-28T20:59:16.090Z,3.20
2022-09-28T21:01:44.304Z,2.97
2022-09-28T21:04:12.589Z,3.60
2022-09-28T21:06:43.122Z,3.50
2022-09-28T21:09:12.483Z,3.27
2022-09-28T21:11:41.629Z,3.90
2022-09-28T21:14:10.802Z,3.03
2022-09-28T21:16:39.834Z,4.32
2022-09-28T21:19:08.050Z,3.97
2022-09-28T21:21:36.067Z,3.27
2022-09-28T21:24:05.675Z,3.20
2022-09-28T21:26:35.072Z,3.43
2022-09-28T21:29:04.793Z,3.67
2022-09-28T21:31:38.042Z,2.97
2022-09-28T21:34:06.066Z,3.07
2022-09-28T21:36:34.318Z,3.43
2022-09-28T21:39:04.952Z,3.20
2022-09-28T21:41:36.468Z,3.43
2022-09-28T21:44:05.043Z,3.40
2022-09-28T21:46:34.217Z,3.73
2022-09-28T21:49:02.429Z,3.40
2022-09-28T21:51:31.108Z,3.23
2022-09-28T21:53:59.107Z,3.17
2022-09-28T21:56:27.755Z,3.60
2022-09-28T21:58:57.280Z,3.53
2022-09-28T22:01:26.645Z,3.93
2022-09-28T22:03:56.067Z,3.40
2022-09-28T22:06:25.723Z,3.53
2022-09-28T22:08:53.763Z,3.50
2022-09-28T22:11:23.688Z,3.70
2022-09-28T22:13:53.106Z,3.60
2022-09-28T22:16:24.625Z,3.10
2022-09-28T22:18:53.518Z,3.40
2022-09-28T22:21:23.026Z,3.40
2022-09-28T22:23:51.283Z,3.60
2022-09-28T22:26:21.565Z,3.93
2022-09-28T22:28:51.015Z,3.53
2022-09-28T22:31:21.334Z,4.13
2022-09-28T22:33:50.828Z,3.47
2022-09-28T22:36:19.979Z,4.13
2022-09-28T22:38:48.486Z,3.10
2022-09-28T22:41:18.711Z,4.50
2022-09-28T22:43:46.834Z,4.43
2022-09-28T22:46:16.554Z,4.00
2022-09-28T22:48:47.847Z,4.10
2022-09-28T22:51:17.628Z,4.13
2022-09-28T22:53:46.036Z,3.70
2022-09-28T22:56:18.391Z,3.50
2022-09-28T22:58:47.526Z,3.37
2022-09-28T23:01:18.713Z,4.00
2022-09-28T23:03:47.399Z,3.43
2022-09-28T23:06:19.111Z,3.47
2022-09-28T23:08:50.469Z,3.47
2022-09-28T23:11:18.809Z,3.70
2022-09-28T23:13:49.959Z,3.03
2022-09-28T23:16:18.649Z,3.00
2022-09-28T23:18:49.111Z,3.70
2022-09-28T23:21:20.177Z,3.63
2022-09-28T23:23:53.478Z,3.60
2022-09-28T23:26:23.754Z,3.33
2022-09-28T23:28:52.659Z,3.87
2022-09-28T23:31:23.102Z,3.57
2022-09-28T23:33:51.647Z,3.77
2022-09-28T23:36:20.982Z,3.37
2022-09-28T23:38:49.030Z,3.77
2022-09-28T23:41:17.007Z,3.87
2022-09-28T23:43:45.231Z,4.63
2022-09-28T23:46:16.228Z,4.07
2022-09-28T23:48:47.801Z,3.60
2022-09-28T23:51:15.821Z,3.57
2022-09-28T23:53:45.223Z,4.40
2022-09-28T23:56:14.349Z,4.60
2022-09-28T23:58:42.758Z,3.80
